createdAt,value
2022-11-26T00:00:26.277Z,30.33
2022-11-26T00:02:56.202Z,26.17
2022-11-26T00:05:24.841Z,28.57
2022-11-26T00:07:55.608Z,22.63
2022-11-26T00:10:25.171Z,25.93
2022-11-26T00:12:53.733Z,28.20
2022-11-26T00:15:22.932Z,26.27
2022-11-26T00:17:51.834Z,26.33
2022-11-26T00:20:23.448Z,27.83
2022-11-26T00:22:52.747Z,22.57
2022-11-26T00:25:22.396Z,22.43
2022-11-26T00:27:50.817Z,26.57
2022-11-26T00:30:20.325Z,22.47
2022-11-26T00:32:48.848Z,23.10
2022-11-26T00:35:17.713Z,22.17
2022-11-26T00:37:49.252Z,24.23
2022-11-26T00:40:20.802Z,20.93
2022-11-26T00:42:49.105Z,22.23
2022-11-26T00:45:18.446Z,23.97
2022-11-26T00:47:46.740Z,21.67
2022-11-26T00:50:16.065Z,21.10
2022-11-26T00:52:44.546Z,22.67
2022-11-26T00:55:18.020Z,24.10
2022-11-26T00:57:46.442Z,24.10
2022-11-26T01:00:18.904Z,22.27
2022-11-26T01:02:47.726Z,26.73
2022-11-26T01:05:16.728Z,24.47
2022-11-26T01:07:45.439Z,22.73
2022-11-26T01:10:18.615Z,24.70
2022-11-26T01:12:47.112Z,25.20
2022-11-26T01:15:15.835Z,26.63
2022-11-26T01:17:45.273Z,28.17
2022-11-26T01:20:25.323Z,23.67
2022-11-26T01:22:54.544Z,26.30
2022-11-26T01:25:24.708Z,27.10
2022-11-26T01:27:53.015Z,23.90
2022-11-26T01:30:22.533Z,23.80
2022-11-26T01:32:51.387Z,25.00
2022-11-26T01:35:20.532Z,22.47
2022-11-26T01:37:49.163Z,28.53
2022-11-26T01:40:28.961Z,25.73
2022-11-26T01:42:59.764Z,27.20
2022-11-26T01:45:28.823Z,24.73
2022-11-26T01:47:57.120Z,29.87
2022-11-26T01:50:44.292Z,26.53
2022-11-26T01:53:14.764Z,30.50
2022-11-26T01:55:48.047Z,27.37
2022-11-26T01:58:17.682Z,30.33
2022-11-26T02:00:46.324Z,24.13
2022-11-26T02:03:14.658Z,25.67
2022-11-26T02:05:44.580Z,28.77
2022-11-26T02:08:13.380Z,27.67
2022-11-26T02:10:41.595Z,28.73
2022-11-26T02:13:11.306Z,29.83
2022-11-26T02:15:43.688Z,29.47
2022-11-26T02:18:12.129Z,32.60
2022-11-26T02:20:43.468Z,30.67
2022-11-26T02:23:30.368Z,31.07
2022-11-26T02:26:25.585Z,28.93
2022-11-26T02:29:02.062Z,32.93
2022-11-26T02:31:35.782Z,28.93
2022-11-26T02:34:08.760Z,31.23
2022-11-26T02:36:38.968Z,30.80
2022-11-26T02:39:16.687Z,27.87
2022-11-26T02:41:46.227Z,28.07
2022-11-26T02:44:15.614Z,30.10
2022-11-26T02:46:45.652Z,31.07
2022-11-26T02:49:15.310Z,33.20
2022-11-26T02:51:43.817Z,29.00
2022-11-26T02:54:13.055Z,33.87
2022-11-26T02:56:42.306Z,30.77
2022-11-26T02:59:11.870Z,30.07
2022-11-26T03:01:42.260Z,30.10
2022-11-26T03:04:14.609Z,33.70
2022-11-26T03:06:43.116Z,34.73
2022-11-26T03:09:11.421Z,31.83
2022-11-26T03:11:39.715Z,31.67
2022-11-26T03:14:08.034Z,32.13
2022-11-26T03:16:36.412Z,31.97
2022-11-26T03:19:04.760Z,28.47
2022-11-26T03:21:34.651Z,34.90
2022-11-26T03:24:02.947Z,33.83
2022-11-26T03:26:31.409Z,28.73
2022-11-26T03:28:59.641Z,31.43
2022-11-26T03:31:27.966Z,28.83
2022-11-26T03:33:56.342Z,30.07
2022-11-26T03:36:24.582Z,32.20
2022-11-26T03:38:54.293Z,29.63
2022-11-26T03:41:22.574Z,26.03
2022-11-26T03:43:51.020Z,30.63
2022-11-26T03:46:19.390Z,34.20
2022-11-26T03:48:47.637Z,24.70
2022-11-26T03:51:15.987Z,27.93
2022-11-26T03:53:44.266Z,25.77
2022-11-26T03:56:13.862Z,31.77
2022-11-26T03:58:42.313Z,25.10
2022-11-26T04:01:11.525Z,23.03
2022-11-26T04:03:39.965Z,23.07
2022-11-26T04:06:08.649Z,25.37
2022-11-26T04:08:36.903Z,21.67
2022-11-26T04:11:05.228Z,28.93
2022-11-26T04:13:34.924Z,19.60
2022-11-26T04:16:03.223Z,20.83
2022-11-26T04:18:31.519Z,18.50
2022-11-26T04:21:00.138Z,21.20
2022-11-26T04:23:28.557Z,21.27
2022-11-26T04:25:56.856Z,18.50
2022-11-26T04:28:25.127Z,19.07
2022-11-26T04:30:54.821Z,18.73
2022-11-26T04:33:23.169Z,21.27
2022-11-26T04:35:51.795Z,15.53
2022-11-26T04:38:24.262Z,17.33
2022-11-26T04:40:54.225Z,17.40
2022-11-26T04:43:22.640Z,17.57
2022-11-26T04:45:51.025Z,17.87
2022-11-26T04:48:20.658Z,16.87
2022-11-26T04:50:50.078Z,17.83
2022-11-26T04:53:22.108Z,15.60
2022-11-26T04:55:50.944Z,16.13
2022-11-26T04:58:19.624Z,15.60
2022-11-26T05:00:50.946Z,18.73
2022-11-26T05:03:21.279Z,14.70
2022-11-26T05:05:49.620Z,16.07
2022-11-26T05:08:17.875Z,16.77
2022-11-26T05:10:46.163Z,18.10
2022-11-26T05:13:14.435Z,20.47
2022-11-26T05:15:42.750Z,17.83
2022-11-26T05:18:11.130Z,21.73
2022-11-26T05:20:40.724Z,18.77
2022-11-26T05:23:09.037Z,21.20
2022-11-26T05:25:37.347Z,19.50
2022-11-26T05:28:05.736Z,20.03
2022-11-26T05:30:34.059Z,20.27
2022-11-26T05:33:02.331Z,18.77
2022-11-26T05:35:30.834Z,27.17
2022-11-26T05:38:00.531Z,30.23
2022-11-26T05:40:28.842Z,27.10
2022-11-26T05:42:57.111Z,26.57
2022-11-26T05:45:25.472Z,24.07
2022-11-26T05:47:53.830Z,23.37
2022-11-26T05:50:22.143Z,24.30
2022-11-26T05:52:50.458Z,22.47
2022-11-26T05:55:20.214Z,26.03
2022-11-26T05:57:48.530Z,28.10
2022-11-26T06:00:17.165Z,21.07
2022-11-26T06:02:45.597Z,23.63
2022-11-26T06:05:13.993Z,27.47
2022-11-26T06:07:44.972Z,23.93
2022-11-26T06:10:13.727Z,26.93
2022-11-26T06:12:43.381Z,23.13
2022-11-26T06:15:11.828Z,26.97
2022-11-26T06:17:40.087Z,29.13
2022-11-26T06:20:08.984Z,31.03
2022-11-26T06:22:38.626Z,25.83
2022-11-26T06:25:07.372Z,32.23
2022-11-26T06:27:35.576Z,29.07
2022-11-26T06:30:05.786Z,26.53
2022-11-26T06:32:34.220Z,28.93
2022-11-26T06:35:02.457Z,24.87
2022-11-26T06:37:30.817Z,27.30
2022-11-26T06:39:59.106Z,28.93
2022-11-26T06:42:27.384Z,27.77
2022-11-26T06:44:59.654Z,28.73
2022-11-26T06:47:29.786Z,29.07
2022-11-26T06:49:58.085Z,27.30
2022-11-26T06:52:26.364Z,31.10
2022-11-26T06:54:54.658Z,31.43
2022-11-26T06:57:22.958Z,27.23
2022-11-26T06:59:52.743Z,20.20
2022-11-26T07:02:21.055Z,22.43
2022-11-26T07:04:50.883Z,19.03
2022-11-26T07:07:19.232Z,19.87
2022-11-26T07:09:47.639Z,18.33
2022-11-26T07:12:15.964Z,20.50
2022-11-26T07:14:44.523Z,18.53
2022-11-26T07:17:12.748Z,20.50
2022-11-26T07:19:41.018Z,20.17
2022-11-26T07:22:10.655Z,19.30
2022-11-26T07:24:39.169Z,17.53
2022-11-26T07:27:07.804Z,16.40
2022-11-26T07:29:36.050Z,19.03
2022-11-26T07:32:04.351Z,19.43
2022-11-26T07:34:32.712Z,21.73
2022-11-26T07:37:01.004Z,22.87
2022-11-26T07:39:30.784Z,21.53
2022-11-26T07:41:59.083Z,21.73
2022-11-26T07:44:27.510Z,25.53
2022-11-26T07:46:55.849Z,20.23
2022-11-26T07:49:24.194Z,21.53
2022-11-26T07:51:52.514Z,21.50
2022-11-26T07:54:20.828Z,23.13
2022-11-26T07:56:50.612Z,28.03
2022-11-26T07:59:18.885Z,36.43
2022-11-26T08:01:47.251Z,30.07
2022-11-26T08:04:15.528Z,37.27
2022-11-26T08:06:43.782Z,37.53
2022-11-26T08:09:12.401Z,46.67
2022-11-26T08:11:40.708Z,34.63
2022-11-26T08:14:12.361Z,37.00
2022-11-26T08:16:40.970Z,40.83
2022-11-26T08:19:10.671Z,31.93
2022-11-26T08:21:39.567Z,45.73
2022-11-26T08:24:08.120Z,37.80
2022-11-26T08:26:42.524Z,44.60
2022-11-26T08:29:14.022Z,37.87
2022-11-26T08:31:46.109Z,40.47
2022-11-26T08:34:16.017Z,42.93
2022-11-26T08:36:44.471Z,42.13
2022-11-26T08:39:14.048Z,41.73
2022-11-26T08:41:44.996Z,46.87
2022-11-26T08:44:18.576Z,52.33
2022-11-26T08:46:46.830Z,54.40
2022-11-26T08:49:16.835Z,48.90
2022-11-26T08:51:45.495Z,45.27
2022-11-26T08:54:13.939Z,53.53
2022-11-26T08:56:42.343Z,57.20
2022-11-26T08:59:10.590Z,56.33
2022-11-26T09:01:40.316Z,52.73
2022-11-26T09:04:08.620Z,52.43
2022-11-26T09:06:37.724Z,55.93
2022-11-26T09:09:17.407Z,53.03
2022-11-26T09:11:47.544Z,57.03
2022-11-26T09:14:16.832Z,56.40
2022-11-26T09:16:46.731Z,58.33
2022-11-26T09:19:15.861Z,60.70
2022-11-26T09:21:44.147Z,61.67
2022-11-26T09:24:12.462Z,70.60
2022-11-26T09:26:40.807Z,73.83
2022-11-26T09:29:09.149Z,67.60
2022-11-26T09:31:49.734Z,69.03
2022-11-26T09:34:27.163Z,68.30
2022-11-26T09:36:55.461Z,73.40
2022-11-26T09:39:23.770Z,59.17
2022-11-26T09:41:55.418Z,60.97
2022-11-26T09:44:26.622Z,56.63
2022-11-26T09:47:12.790Z,59.60
2022-11-26T09:49:46.051Z,69.13
2022-11-26T09:52:15.417Z,52.33
2022-11-26T09:54:44.267Z,55.20
2022-11-26T09:57:19.924Z,50.20
2022-11-26T09:59:48.918Z,54.23
2022-11-26T10:02:17.288Z,58.67
2022-11-26T10:04:47.884Z,53.23
2022-11-26T10:07:25.891Z,54.00
2022-11-26T10:09:59.784Z,55.17
2022-11-26T10:12:50.294Z,54.13
2022-11-26T10:15:29.819Z,50.07
2022-11-26T10:18:01.228Z,53.30
2022-11-26T10:20:51.857Z,52.50
2022-11-26T10:23:23.366Z,55.60
2022-11-26T10:25:52.876Z,51.87
2022-11-26T10:28:22.292Z,43.90
2022-11-26T10:30:54.671Z,43.53
2022-11-26T10:33:23.017Z,40.70
2022-11-26T10:35:52.650Z,46.37
2022-11-26T10:38:21.278Z,36.60
2022-11-26T10:40:49.574Z,38.00
2022-11-26T10:43:20.234Z,43.53
2022-11-26T10:45:49.698Z,43.13
2022-11-26T10:48:21.488Z,39.20
2022-11-26T10:50:59.056Z,40.93
2022-11-26T10:53:28.352Z,42.43
2022-11-26T10:55:57.274Z,42.27
2022-11-26T10:58:26.628Z,39.87
2022-11-26T11:00:59.913Z,40.23
2022-11-26T11:03:59.858Z,44.60
2022-11-26T11:06:29.723Z,35.53
2022-11-26T11:08:58.184Z,41.37
2022-11-26T11:11:27.610Z,34.43
2022-11-26T11:13:55.932Z,37.87
2022-11-26T11:16:28.040Z,27.43
2022-11-26T11:18:57.447Z,31.73
2022-11-26T11:21:29.353Z,34.73
2022-11-26T11:24:09.595Z,30.73
2022-11-26T11:26:43.380Z,27.97
2022-11-26T11:29:25.858Z,31.57
2022-11-26T11:31:54.375Z,29.33
2022-11-26T11:34:23.465Z,28.20
2022-11-26T11:37:00.387Z,29.37
2022-11-26T11:39:31.344Z,32.63
2022-11-26T11:42:00.034Z,27.77
2022-11-26T11:44:29.583Z,27.77
2022-11-26T11:47:09.709Z,27.07
2022-11-26T11:49:44.840Z,26.87
2022-11-26T11:52:17.766Z,29.90
2022-11-26T11:54:54.421Z,33.03
2022-11-26T11:57:27.020Z,29.63
2022-11-26T12:00:13.154Z,24.07
2022-11-26T12:02:57.621Z,26.90
2022-11-26T12:05:33.861Z,21.27
2022-11-26T12:08:07.191Z,24.80
2022-11-26T12:10:41.976Z,27.63
2022-11-26T12:13:12.570Z,26.40
2022-11-26T12:15:43.994Z,27.70
2022-11-26T12:18:20.352Z,25.77
2022-11-26T12:20:51.111Z,21.53
2022-11-26T12:23:27.219Z,29.47
2022-11-26T12:26:00.218Z,24.60
2022-11-26T12:28:29.718Z,24.47
2022-11-26T12:31:01.386Z,25.17
2022-11-26T12:33:33.607Z,18.80
2022-11-26T12:36:07.153Z,20.57
2022-11-26T12:38:36.946Z,21.50
2022-11-26T12:41:08.293Z,27.13
2022-11-26T12:43:45.091Z,23.07
2022-11-26T12:46:17.962Z,23.20
2022-11-26T12:48:49.088Z,19.60
2022-11-26T12:51:21.998Z,26.10
2022-11-26T12:53:54.068Z,33.27
2022-11-26T12:56:26.592Z,22.27
2022-11-26T12:58:58.573Z,26.47
2022-11-26T13:01:28.006Z,22.43
2022-11-26T13:04:21.533Z,27.63
2022-11-26T13:06:53.464Z,25.10
2022-11-26T13:09:30.103Z,26.33
2022-11-26T13:12:02.432Z,27.13
2022-11-26T13:14:36.175Z,24.97
2022-11-26T13:17:07.172Z,21.90
2022-11-26T13:19:37.938Z,31.00
2022-11-26T13:22:14.001Z,29.30
2022-11-26T13:24:51.142Z,23.53
2022-11-26T13:27:25.738Z,26.10
2022-11-26T13:30:02.619Z,24.37
2022-11-26T13:32:45.000Z,24.33
2022-11-26T13:35:18.760Z,25.80
2022-11-26T13:37:51.937Z,26.57
2022-11-26T13:40:35.299Z,26.13
2022-11-26T13:43:21.869Z,27.40
2022-11-26T13:46:04.332Z,28.00
2022-11-26T13:48:36.960Z,25.97
2022-11-26T13:51:09.011Z,28.30
2022-11-26T13:53:39.715Z,22.47
2022-11-26T13:56:09.344Z,24.10
2022-11-26T13:58:38.936Z,23.73
2022-11-26T14:01:22.699Z,22.17
2022-11-26T14:03:52.461Z,25.90
2022-11-26T14:06:20.731Z,20.53
2022-11-26T14:08:49.729Z,34.97
2022-11-26T14:11:32.857Z,38.33
2022-11-26T14:14:16.014Z,29.67
2022-11-26T14:16:59.195Z,19.53
2022-11-26T14:19:48.986Z,25.47
2022-11-26T14:22:28.011Z,21.17
2022-11-26T14:25:00.555Z,27.17
2022-11-26T14:27:30.719Z,24.57
2022-11-26T14:30:04.739Z,27.03
2022-11-26T14:32:35.392Z,20.63
2022-11-26T14:35:05.349Z,21.60
2022-11-26T14:37:33.723Z,24.60
2022-11-26T14:40:02.664Z,21.83
2022-11-26T14:42:31.244Z,21.27
2022-11-26T14:45:03.367Z,20.53
2022-11-26T14:47:32.103Z,24.87
2022-11-26T14:50:01.851Z,19.50
2022-11-26T14:52:34.475Z,26.40
2022-11-26T14:55:04.145Z,22.33
2022-11-26T14:57:37.711Z,20.60
2022-11-26T15:00:08.706Z,21.43
2022-11-26T15:02:40.581Z,24.73
2022-11-26T15:05:15.372Z,16.83
2022-11-26T15:07:45.181Z,24.93
2022-11-26T15:10:20.412Z,22.27
2022-11-26T15:12:49.713Z,22.77
2022-11-26T15:15:19.755Z,19.07
2022-11-26T15:17:50.776Z,19.57
2022-11-26T15:20:19.890Z,16.87
2022-11-26T15:22:52.084Z,18.33
2022-11-26T15:25:21.491Z,22.87
2022-11-26T15:27:54.833Z,18.10
2022-11-26T15:30:24.236Z,24.40
2022-11-26T15:32:58.229Z,21.60
2022-11-26T15:35:26.555Z,19.40
2022-11-26T15:37:56.256Z,21.53
2022-11-26T15:40:25.592Z,22.07
2022-11-26T15:42:55.932Z,18.90
2022-11-26T15:45:24.857Z,15.70
2022-11-26T15:47:54.414Z,20.13
2022-11-26T15:50:30.944Z,23.17
2022-11-26T15:53:02.603Z,20.03
2022-11-26T15:55:32.265Z,19.50
2022-11-26T15:58:03.699Z,20.57
2022-11-26T16:00:33.332Z,22.67
2022-11-26T16:03:01.744Z,22.33
2022-11-26T16:05:33.125Z,28.37
2022-11-26T16:08:03.628Z,24.40
2022-11-26T16:10:35.554Z,21.23
2022-11-26T16:13:08.896Z,18.93
2022-11-26T16:15:37.635Z,19.17
2022-11-26T16:18:06.400Z,16.70
2022-11-26T16:20:34.735Z,14.47
2022-11-26T16:23:04.452Z,22.23
2022-11-26T16:25:37.241Z,16.50
2022-11-26T16:28:06.740Z,21.50
2022-11-26T16:30:36.015Z,27.83
2022-11-26T16:33:04.406Z,25.33
2022-11-26T16:35:48.130Z,23.07
2022-11-26T16:38:21.711Z,24.97
2022-11-26T16:40:50.441Z,15.57
2022-11-26T16:43:18.813Z,21.20
2022-11-26T16:45:47.524Z,19.40
2022-11-26T16:48:20.320Z,23.70
2022-11-26T16:50:48.773Z,13.63
2022-11-26T16:53:17.101Z,19.00
2022-11-26T16:55:46.917Z,15.20
2022-11-26T16:58:18.217Z,13.13
2022-11-26T17:00:46.503Z,19.10
2022-11-26T17:03:14.950Z,13.23
2022-11-26T17:05:43.392Z,18.50
2022-11-26T17:08:13.159Z,17.17
2022-11-26T17:10:41.834Z,16.83
2022-11-26T17:13:11.453Z,21.63
2022-11-26T17:15:39.713Z,20.97
2022-11-26T17:18:12.962Z,13.67
2022-11-26T17:20:41.329Z,16.03
2022-11-26T17:23:09.623Z,16.53
2022-11-26T17:25:37.934Z,19.07
2022-11-26T17:28:07.438Z,18.83
2022-11-26T17:30:37.188Z,18.37
2022-11-26T17:33:05.604Z,20.67
2022-11-26T17:35:33.998Z,14.17
2022-11-26T17:38:02.569Z,16.07
2022-11-26T17:40:30.833Z,15.67
2022-11-26T17:42:59.121Z,17.23
2022-11-26T17:45:27.393Z,16.43
2022-11-26T17:47:57.071Z,14.87
2022-11-26T17:50:26.061Z,12.27
2022-11-26T17:52:54.911Z,20.17
2022-11-26T17:55:23.650Z,21.37
2022-11-26T17:57:52.252Z,18.03
2022-11-26T18:00:21.748Z,13.47
2022-11-26T18:02:50.291Z,13.83
2022-11-26T18:05:19.995Z,18.67
2022-11-26T18:07:49.821Z,18.77
2022-11-26T18:10:19.695Z,16.57
2022-11-26T18:12:48.239Z,17.50
2022-11-26T18:15:20.351Z,18.80
2022-11-26T18:17:50.728Z,16.97
2022-11-26T18:20:21.769Z,19.13
2022-11-26T18:22:51.814Z,15.43
2022-11-26T18:25:20.134Z,17.97
2022-11-26T18:27:48.566Z,15.83
2022-11-26T18:30:17.206Z,17.83
2022-11-26T18:32:45.526Z,16.80
2022-11-26T18:35:14.088Z,23.57
2022-11-26T18:37:43.939Z,17.77
2022-11-26T18:40:13.574Z,18.67
2022-11-26T18:42:41.938Z,20.33
2022-11-26T18:45:11.891Z,13.80
2022-11-26T18:47:40.567Z,27.37
2022-11-26T18:50:09.437Z,23.23
2022-11-26T18:52:37.811Z,23.50
2022-11-26T18:55:08.703Z,25.37
2022-11-26T18:57:37.188Z,21.87
2022-11-26T19:00:05.848Z,23.23
2022-11-26T19:02:35.400Z,20.57
2022-11-26T19:05:03.706Z,15.60
2022-11-26T19:07:33.115Z,22.07
2022-11-26T19:10:01.562Z,19.67
2022-11-26T19:12:31.490Z,15.70
2022-11-26T19:14:59.762Z,16.93
2022-11-26T19:17:28.048Z,16.60
2022-11-26T19:19:56.331Z,15.97
2022-11-26T19:22:24.654Z,23.50
2022-11-26T19:24:53.013Z,15.00
2022-11-26T19:27:21.336Z,15.57
2022-11-26T19:29:50.989Z,16.00
2022-11-26T19:32:19.336Z,16.67
2022-11-26T19:34:47.680Z,12.83
2022-11-26T19:37:16.006Z,15.67
2022-11-26T19:39:44.378Z,13.13
2022-11-26T19:42:13.009Z,15.53
2022-11-26T19:44:41.321Z,14.27
2022-11-26T19:47:10.968Z,18.00
2022-11-26T19:49:39.611Z,15.33
2022-11-26T19:52:08.175Z,14.47
2022-11-26T19:54:36.503Z,16.13
2022-11-26T19:57:04.882Z,20.57
2022-11-26T19:59:33.264Z,15.63
2022-11-26T20:02:01.944Z,13.77
2022-11-26T20:04:31.751Z,15.70
2022-11-26T20:07:00.127Z,11.37
2022-11-26T20:09:28.637Z,18.67
2022-11-26T20:11:56.936Z,15.07
2022-11-26T20:14:25.210Z,15.53
2022-11-26T20:16:57.757Z,14.57
2022-11-26T20:19:29.387Z,17.23
2022-11-26T20:21:59.174Z,19.60
2022-11-26T20:24:27.497Z,18.43
2022-11-26T20:26:55.911Z,12.17
2022-11-26T20:29:25.222Z,11.63
2022-11-26T20:31:54.384Z,13.40
2022-11-26T20:34:23.714Z,12.30
2022-11-26T20:36:52.035Z,14.13
2022-11-26T20:39:24.301Z,14.67
2022-11-26T20:41:52.715Z,12.97
2022-11-26T20:44:20.970Z,16.17
2022-11-26T20:46:49.334Z,14.73
2022-11-26T20:49:17.632Z,15.37
2022-11-26T20:51:45.927Z,9.10
2022-11-26T20:54:14.195Z,15.50
2022-11-26T20:56:44.035Z,12.40
2022-11-26T20:59:12.549Z,12.47
2022-11-26T21:01:40.971Z,12.10
2022-11-26T21:04:09.442Z,11.37
2022-11-26T21:06:37.716Z,11.27
2022-11-26T21:09:07.416Z,9.97
2022-11-26T21:11:36.320Z,13.47
2022-11-26T21:14:09.467Z,12.33
2022-11-26T21:16:40.444Z,12.50
2022-11-26T21:19:08.783Z,12.77
2022-11-26T21:21:37.360Z,9.60
2022-11-26T21:24:06.226Z,10.40
2022-11-26T21:26:34.572Z,12.27
2022-11-26T21:29:03.402Z,9.57
2022-11-26T21:31:33.441Z,13.47
2022-11-26T21:34:02.804Z,11.70
2022-11-26T21:36:32.301Z,13.37
2022-11-26T21:39:00.633Z,9.83
2022-11-26T21:41:29.709Z,11.40
2022-11-26T21:44:02.379Z,12.53
2022-11-26T21:46:34.973Z,14.20
2022-11-26T21:49:08.356Z,12.47
2022-11-26T21:51:46.764Z,13.03
2022-11-26T21:54:15.052Z,14.60
2022-11-26T21:56:43.318Z,10.70
2022-11-26T21:59:11.991Z,11.77
2022-11-26T22:01:40.351Z,12.40
2022-11-26T22:04:12.123Z,17.17
2022-11-26T22:06:40.937Z,12.93
2022-11-26T22:09:09.832Z,12.37
2022-11-26T22:11:39.266Z,12.93
2022-11-26T22:14:08.007Z,13.73
2022-11-26T22:16:36.583Z,15.03
2022-11-26T22:19:05.470Z,11.10
2022-11-26T22:21:35.962Z,11.57
2022-11-26T22:24:04.883Z,11.57
2022-11-26T22:26:33.695Z,8.97
2022-11-26T22:29:02.095Z,11.10
2022-11-26T22:31:31.379Z,12.73
2022-11-26T22:34:01.099Z,11.60
2022-11-26T22:36:29.621Z,10.93
2022-11-26T22:38:59.719Z,14.40
2022-11-26T22:41:28.422Z,12.53
2022-11-26T22:43:56.878Z,12.63
2022-11-26T22:46:25.495Z,10.40
2022-11-26T22:48:55.322Z,13.37
2022-11-26T22:51:24.143Z,11.93
2022-11-26T22:53:52.619Z,11.60
2022-11-26T22:56:25.027Z,13.47
2022-11-26T22:58:53.419Z,16.33
2022-11-26T23:01:22.453Z,14.60
2022-11-26T23:03:51.265Z,14.63
2022-11-26T23:06:20.972Z,12.10
2022-11-26T23:08:49.568Z,15.50
2022-11-26T23:11:19.168Z,10.30
2022-11-26T23:13:49.669Z,11.97
2022-11-26T23:16:18.030Z,14.00
2022-11-26T23:18:46.983Z,9.83
2022-11-26T23:21:17.031Z,12.07
2022-11-26T23:23:45.577Z,11.57
2022-11-26T23:26:15.074Z,16.17
2022-11-26T23:28:43.354Z,18.47
2022-11-26T23:31:15.709Z,21.57
2022-11-26T23:33:44.281Z,18.43
2022-11-26T23:36:12.885Z,14.23
2022-11-26T23:38:41.287Z,21.47
2022-11-26T23:41:10.012Z,15.90
2022-11-26T23:43:38.860Z,18.07
2022-11-26T23:46:08.116Z,17.53
2022-11-26T23:48:37.805Z,16.93
2022-11-26T23:51:07.853Z,11.33
2022-11-26T23:53:36.921Z,16.07
2022-11-26T23:56:05.951Z,9.43
2022-11-26T23:58:34.328Z,10.90
